sensor_id;sensor_type;location;lat;lon;timestamp;P1;durP1;ratioP1;P2;durP2;ratioP2
3745;SDS011;1888;49.890;10.884;2022-10-16T06:28:53;77.63;;;69.90;;
3745;SDS011;1888;49.890;10.884;2022-10-16T06:31:20;78.20;;;70.47;;
3745;SDS011;1888;49.890;10.884;2022-10-16T06:33:49;76.03;;;68.37;;
3745;SDS011;1888;49.890;10.884;2022-10-16T06:36:17;75.53;;;67.90;;
3745;SDS011;1888;49.890;10.884;2022-10-16T06:38:44;76.17;;;68.50;;
3745;SDS011;1888;49.890;10.884;2022-10-16T06:41:12;81.57;;;73.60;;
3745;SDS011;1888;49.890;10.884;2022-10-16T06:43:40;81.87;;;73.90;;
3745;SDS011;1888;49.890;10.884;2022-10-16T06:46:09;79.97;;;72.10;;
3745;SDS011;1888;49.890;10.884;2022-10-16T06:48:37;80.13;;;72.27;;
3745;SDS011;1888;49.890;10.884;2022-10-16T06:51:05;83.03;;;75.07;;
3745;SDS011;1888;49.890;10.884;2022-10-16T06:53:33;83.83;;;75.77;;
3745;SDS011;1888;49.890;10.884;2022-10-16T06:56:06;78.77;;;70.97;;
3745;SDS011;1888;49.890;10.884;2022-10-16T06:58:33;81.70;;;73.70;;
3745;SDS011;1888;49.890;10.884;2022-10-16T07:01:00;84.87;;;76.77;;
3745;SDS011;1888;49.890;10.884;2022-10-16T07:03:29;80.90;;;72.97;;
3745;SDS011;1888;49.890;10.884;2022-10-16T07:05:56;82.10;;;74.07;;
3745;SDS011;1888;49.890;10.884;2022-10-16T07:08:24;82.37;;;74.37;;
3745;SDS011;1888;49.890;10.884;2022-10-16T07:10:57;89.43;;;81.07;;
3745;SDS011;1888;49.890;10.884;2022-10-16T07:13:25;87.63;;;79.37;;
3745;SDS011;1888;49.890;10.884;2022-10-16T07:15:52;89.27;;;80.97;;
3745;SDS011;1888;49.890;10.884;2022-10-16T07:18:20;90.50;;;82.13;;
3745;SDS011;1888;49.890;10.884;2022-10-16T07:20:52;91.37;;;82.90;;
3745;SDS011;1888;49.890;10.884;2022-10-16T07:23:19;86.47;;;78.23;;
3745;SDS011;1888;49.890;10.884;2022-10-16T07:25:52;89.23;;;80.90;;
3745;SDS011;1888;49.890;10.884;2022-10-16T07:28:20;87.57;;;79.27;;
3745;SDS011;1888;49.890;10.884;2022-10-16T07:30:47;89.63;;;81.20;;
3745;SDS011;1888;49.890;10.884;2022-10-16T07:33:14;92.40;;;83.90;;
3745;SDS011;1888;49.890;10.884;2022-10-16T07:35:47;92.93;;;84.37;;
3745;SDS011;1888;49.890;10.884;2022-10-16T07:38:15;93.50;;;84.93;;
3745;SDS011;1888;49.890;10.884;2022-10-16T07:40:42;100.23;;;91.30;;
3745;SDS011;1888;49.890;10.884;2022-10-16T07:43:10;102.23;;;93.20;;
3745;SDS011;1888;49.890;10.884;2022-10-16T07:45:37;107.70;;;98.43;;
3745;SDS011;1888;49.890;10.884;2022-10-16T07:48:04;106.87;;;97.60;;
3745;SDS011;1888;49.890;10.884;2022-10-16T07:50:31;120.13;;;110.13;;
3745;SDS011;1888;49.890;10.884;2022-10-16T07:52:58;126.17;;;115.83;;
3745;SDS011;1888;49.890;10.884;2022-10-16T07:55:27;131.33;;;120.70;;
3745;SDS011;1888;49.890;10.884;2022-10-16T07:57:54;134.43;;;123.60;;
3745;SDS011;1888;49.890;10.884;2022-10-16T08:00:21;137.70;;;126.67;;
3745;SDS011;1888;49.890;10.884;2022-10-16T08:02:48;138.50;;;127.40;;
3745;SDS011;1888;49.890;10.884;2022-10-16T08:05:15;136.17;;;125.17;;
3745;SDS011;1888;49.890;10.884;2022-10-16T08:07:43;138.37;;;127.27;;
3745;SDS011;1888;49.890;10.884;2022-10-16T08:10:15;139.27;;;128.07;;
3745;SDS011;1888;49.890;10.884;2022-10-16T08:12:44;135.00;;;124.03;;
3745;SDS011;1888;49.890;10.884;2022-10-16T08:15:11;134.90;;;123.87;;
3745;SDS011;1888;49.890;10.884;2022-10-16T08:17:38;144.13;;;132.57;;
3745;SDS011;1888;49.890;10.884;2022-10-16T08:20:06;136.83;;;125.63;;
3745;SDS011;1888;49.890;10.884;2022-10-16T08:22:33;134.47;;;123.40;;
3745;SDS011;1888;49.890;10.884;2022-10-16T08:25:00;150.73;;;138.67;;
3745;SDS011;1888;49.890;10.884;2022-10-16T08:27:30;155.77;;;143.43;;
3745;SDS011;1888;49.890;10.884;2022-10-16T08:30:00;151.90;;;139.70;;
3745;SDS011;1888;49.890;10.884;2022-10-16T08:32:27;152.97;;;140.77;;
3745;SDS011;1888;49.890;10.884;2022-10-16T08:34:54;143.27;;;131.60;;
3745;SDS011;1888;49.890;10.884;2022-10-16T08:37:22;123.87;;;113.50;;
3745;SDS011;1888;49.890;10.884;2022-10-16T08:39:49;110.33;;;100.67;;
3745;SDS011;1888;49.890;10.884;2022-10-16T08:42:23;101.33;;;92.17;;
3745;SDS011;1888;49.890;10.884;2022-10-16T08:45:11;94.47;;;85.60;;
3745;SDS011;1888;49.890;10.884;2022-10-16T08:47:46;92.43;;;83.77;;
3745;SDS011;1888;49.890;10.884;2022-10-16T08:50:17;94.70;;;85.83;;
3745;SDS011;1888;49.890;10.884;2022-10-16T08:52:45;88.27;;;79.70;;
3745;SDS011;1888;49.890;10.884;2022-10-16T08:55:17;90.97;;;82.30;;
3745;SDS011;1888;49.890;10.884;2022-10-16T08:57:46;94.87;;;86.00;;
3745;SDS011;1888;49.890;10.884;2022-10-16T09:00:15;95.47;;;86.50;;
3745;SDS011;1888;49.890;10.884;2022-10-16T09:02:44;104.57;;;95.17;;
3745;SDS011;1888;49.890;10.884;2022-10-16T09:08:02;123.00;;;112.57;;
3745;SDS011;1888;49.890;10.884;2022-10-16T09:10:34;107.07;;;97.47;;
3745;SDS011;1888;49.890;10.884;2022-10-16T09:13:09;103.60;;;94.17;;
3745;SDS011;1888;49.890;10.884;2022-10-16T09:15:42;111.33;;;101.57;;
3745;SDS011;1888;49.890;10.884;2022-10-16T09:18:12;105.60;;;96.20;;
3745;SDS011;1888;49.890;10.884;2022-10-16T09:20:44;101.30;;;92.03;;
3745;SDS011;1888;49.890;10.884;2022-10-16T09:23:17;94.60;;;85.70;;
3745;SDS011;1888;49.890;10.884;2022-10-16T09:25:46;92.10;;;83.33;;
3745;SDS011;1888;49.890;10.884;2022-10-16T09:28:14;91.80;;;83.10;;
3745;SDS011;1888;49.890;10.884;2022-10-16T09:30:43;82.27;;;74.10;;
3745;SDS011;1888;49.890;10.884;2022-10-16T09:33:10;81.63;;;73.47;;
3745;SDS011;1888;49.890;10.884;2022-10-16T09:35:40;80.73;;;72.63;;
3745;SDS011;1888;49.890;10.884;2022-10-16T09:38:07;76.57;;;68.60;;
3745;SDS011;1888;49.890;10.884;2022-10-16T09:40:35;76.77;;;68.83;;
3745;SDS011;1888;49.890;10.884;2022-10-16T09:43:12;81.73;;;73.57;;
3745;SDS011;1888;49.890;10.884;2022-10-16T09:45:44;80.67;;;72.50;;
3745;SDS011;1888;49.890;10.884;2022-10-16T09:48:20;82.70;;;74.43;;
3745;SDS011;1888;49.890;10.884;2022-10-16T09:50:55;83.33;;;75.10;;
3745;SDS011;1888;49.890;10.884;2022-10-16T09:53:22;84.17;;;75.90;;
3745;SDS011;1888;49.890;10.884;2022-10-16T09:55:49;84.00;;;75.70;;
3745;SDS011;1888;49.890;10.884;2022-10-16T09:58:17;78.40;;;70.33;;
3745;SDS011;1888;49.890;10.884;2022-10-16T10:00:50;88.30;;;79.80;;
3745;SDS011;1888;49.890;10.884;2022-10-16T10:03:25;83.30;;;75.00;;
3745;SDS011;1888;49.890;10.884;2022-10-16T10:05:57;82.87;;;74.60;;
3745;SDS011;1888;49.890;10.884;2022-10-16T10:08:24;88.60;;;80.07;;
3745;SDS011;1888;49.890;10.884;2022-10-16T10:10:51;88.07;;;79.63;;
3745;SDS011;1888;49.890;10.884;2022-10-16T10:13:20;85.60;;;77.23;;
3745;SDS011;1888;49.890;10.884;2022-10-16T10:15:50;86.77;;;78.30;;
3745;SDS011;1888;49.890;10.884;2022-10-16T10:18:19;89.37;;;80.80;;
3745;SDS011;1888;49.890;10.884;2022-10-16T10:20:57;75.90;;;68.00;;
3745;SDS011;1888;49.890;10.884;2022-10-16T10:23:26;74.77;;;66.80;;
3745;SDS011;1888;49.890;10.884;2022-10-16T10:25:54;81.30;;;73.03;;
3745;SDS011;1888;49.890;10.884;2022-10-16T10:28:27;83.53;;;75.20;;
3745;SDS011;1888;49.890;10.884;2022-10-16T10:30:59;89.93;;;81.40;;
3745;SDS011;1888;49.890;10.884;2022-10-16T10:33:29;82.83;;;74.57;;
3745;SDS011;1888;49.890;10.884;2022-10-16T10:36:01;77.27;;;69.23;;
3745;SDS011;1888;49.890;10.884;2022-10-16T10:38:31;74.53;;;66.60;;
3745;SDS011;1888;49.890;10.884;2022-10-16T10:41:05;74.43;;;66.57;;
3745;SDS011;1888;49.890;10.884;2022-10-16T10:43:42;73.70;;;65.83;;
3745;SDS011;1888;49.890;10.884;2022-10-16T10:46:14;71.50;;;63.73;;
3745;SDS011;1888;49.890;10.884;2022-10-16T10:48:47;78.50;;;70.40;;
3745;SDS011;1888;49.890;10.884;2022-10-16T10:51:20;72.23;;;64.40;;
3745;SDS011;1888;49.890;10.884;2022-10-16T10:53:54;75.20;;;67.23;;
3745;SDS011;1888;49.890;10.884;2022-10-16T10:56:26;78.93;;;70.77;;
3745;SDS011;1888;49.890;10.884;2022-10-16T11:01:46;100.30;;;91.17;;
3745;SDS011;1888;49.890;10.884;2022-10-16T11:07:05;105.97;;;96.57;;
3745;SDS011;1888;49.890;10.884;2022-10-16T11:09:36;99.63;;;90.47;;
3745;SDS011;1888;49.890;10.884;2022-10-16T11:12:05;114.37;;;104.47;;
3745;SDS011;1888;49.890;10.884;2022-10-16T11:14:34;128.50;;;117.93;;
3745;SDS011;1888;49.890;10.884;2022-10-16T11:17:04;142.80;;;131.50;;
3745;SDS011;1888;49.890;10.884;2022-10-16T11:19:35;123.77;;;113.50;;
3745;SDS011;1888;49.890;10.884;2022-10-16T11:22:04;128.23;;;117.70;;
3745;SDS011;1888;49.890;10.884;2022-10-16T11:24:44;138.70;;;127.73;;
3745;SDS011;1888;49.890;10.884;2022-10-16T11:27:15;122.17;;;112.03;;
3745;SDS011;1888;49.890;10.884;2022-10-16T11:29:45;124.33;;;114.17;;
3745;SDS011;1888;49.890;10.884;2022-10-16T11:32:20;122.20;;;112.23;;
3745;SDS011;1888;49.890;10.884;2022-10-16T11:34:48;109.80;;;100.53;;
3745;SDS011;1888;49.890;10.884;2022-10-16T11:37:17;71.00;;;63.43;;
3745;SDS011;1888;49.890;10.884;2022-10-16T11:39:46;56.40;;;31.80;;
3745;SDS011;1888;49.890;10.884;2022-10-16T11:42:16;50.30;;;18.03;;
3745;SDS011;1888;49.890;10.884;2022-10-16T11:54:16;51.10;;;18.67;;
3745;SDS011;1888;49.890;10.884;2022-10-16T12:14:38;90.47;;;81.33;;
3745;SDS011;1888;49.890;10.884;2022-10-16T12:17:23;94.27;;;84.77;;
3745;SDS011;1888;49.890;10.884;2022-10-16T12:22:36;133.30;;;121.43;;
3745;SDS011;1888;49.890;10.884;2022-10-16T12:25:04;103.03;;;93.00;;
3745;SDS011;1888;49.890;10.884;2022-10-16T12:27:32;79.57;;;70.87;;
3745;SDS011;1888;49.890;10.884;2022-10-16T12:30:03;76.60;;;67.40;;
3745;SDS011;1888;49.890;10.884;2022-10-16T12:32:33;73.10;;;61.93;;
3745;SDS011;1888;49.890;10.884;2022-10-16T12:35:01;62.27;;;38.17;;
3745;SDS011;1888;49.890;10.884;2022-10-16T12:37:34;56.93;;;25.00;;
3745;SDS011;1888;49.890;10.884;2022-10-16T12:40:11;51.27;;;14.23;;
3745;SDS011;1888;49.890;10.884;2022-10-16T12:42:39;51.87;;;22.10;;
3745;SDS011;1888;49.890;10.884;2022-10-16T12:45:21;47.70;;;11.73;;
3745;SDS011;1888;49.890;10.884;2022-10-16T12:47:50;49.30;;;18.30;;
3745;SDS011;1888;49.890;10.884;2022-10-16T12:50:23;49.10;;;17.47;;
3745;SDS011;1888;49.890;10.884;2022-10-16T12:52:51;50.43;;;21.73;;
3745;SDS011;1888;49.890;10.884;2022-10-16T12:55:19;48.57;;;17.30;;
3745;SDS011;1888;49.890;10.884;2022-10-16T12:57:50;46.03;;;11.50;;
3745;SDS011;1888;49.890;10.884;2022-10-16T13:00:24;46.40;;;12.20;;
3745;SDS011;1888;49.890;10.884;2022-10-16T13:05:38;47.00;;;11.60;;
3745;SDS011;1888;49.890;10.884;2022-10-16T13:08:12;46.70;;;11.20;;
3745;SDS011;1888;49.890;10.884;2022-10-16T13:10:41;47.77;;;12.13;;
3745;SDS011;1888;49.890;10.884;2022-10-16T13:13:20;46.47;;;11.53;;
3745;SDS011;1888;49.890;10.884;2022-10-16T13:15:54;57.07;;;41.10;;
3745;SDS011;1888;49.890;10.884;2022-10-16T13:18:28;94.90;;;86.63;;
3745;SDS011;1888;49.890;10.884;2022-10-16T13:21:00;129.83;;;119.70;;
3745;SDS011;1888;49.890;10.884;2022-10-16T13:23:31;144.73;;;133.87;;
3745;SDS011;1888;49.890;10.884;2022-10-16T13:26:07;145.67;;;134.60;;
3745;SDS011;1888;49.890;10.884;2022-10-16T13:28:36;137.47;;;126.87;;
3745;SDS011;1888;49.890;10.884;2022-10-16T13:31:09;172.30;;;159.83;;
3745;SDS011;1888;49.890;10.884;2022-10-16T13:33:39;137.07;;;126.43;;
3745;SDS011;1888;49.890;10.884;2022-10-16T13:36:17;149.17;;;137.90;;
3745;SDS011;1888;49.890;10.884;2022-10-16T13:38:45;144.43;;;133.40;;
3745;SDS011;1888;49.890;10.884;2022-10-16T13:41:14;168.17;;;156.00;;
3745;SDS011;1888;49.890;10.884;2022-10-16T13:43:45;128.37;;;118.30;;
3745;SDS011;1888;49.890;10.884;2022-10-16T13:46:15;144.00;;;133.17;;
3745;SDS011;1888;49.890;10.884;2022-10-16T13:48:43;136.37;;;125.97;;
3745;SDS011;1888;49.890;10.884;2022-10-16T13:51:12;186.10;;;172.97;;
3745;SDS011;1888;49.890;10.884;2022-10-16T13:53:40;188.63;;;175.40;;
3745;SDS011;1888;49.890;10.884;2022-10-16T13:56:10;147.37;;;136.20;;
3745;SDS011;1888;49.890;10.884;2022-10-16T13:58:43;142.57;;;131.80;;
3745;SDS011;1888;49.890;10.884;2022-10-16T14:01:22;160.20;;;148.50;;
3745;SDS011;1888;49.890;10.884;2022-10-16T14:03:52;223.80;;;209.50;;
3745;SDS011;1888;49.890;10.884;2022-10-16T14:06:20;230.30;;;215.70;;
3745;SDS011;1888;49.890;10.884;2022-10-16T14:08:48;219.80;;;205.87;;
3745;SDS011;1888;49.890;10.884;2022-10-16T14:11:20;187.73;;;175.17;;
3745;SDS011;1888;49.890;10.884;2022-10-16T14:13:48;231.27;;;216.90;;
3745;SDS011;1888;49.890;10.884;2022-10-16T14:16:16;206.00;;;192.73;;
3745;SDS011;1888;49.890;10.884;2022-10-16T14:18:49;200.33;;;187.33;;
3745;SDS011;1888;49.890;10.884;2022-10-16T14:21:17;200.87;;;187.80;;
3745;SDS011;1888;49.890;10.884;2022-10-16T14:23:45;243.73;;;228.93;;
3745;SDS011;1888;49.890;10.884;2022-10-16T14:26:12;165.67;;;154.20;;
3745;SDS011;1888;49.890;10.884;2022-10-16T14:28:40;145.40;;;135.03;;
3745;SDS011;1888;49.890;10.884;2022-10-16T14:31:24;129.33;;;119.77;;
3745;SDS011;1888;49.890;10.884;2022-10-16T14:33:53;145.70;;;135.33;;
3745;SDS011;1888;49.890;10.884;2022-10-16T14:36:20;138.53;;;128.47;;
3745;SDS011;1888;49.890;10.884;2022-10-16T14:38:48;132.37;;;122.67;;
3745;SDS011;1888;49.890;10.884;2022-10-16T14:41:16;149.13;;;138.73;;
3745;SDS011;1888;49.890;10.884;2022-10-16T14:43:49;126.00;;;116.70;;
3745;SDS011;1888;49.890;10.884;2022-10-16T14:46:17;102.77;;;94.77;;
3745;SDS011;1888;49.890;10.884;2022-10-16T14:48:45;144.57;;;134.43;;
3745;SDS011;1888;49.890;10.884;2022-10-16T14:51:15;110.00;;;101.63;;
3745;SDS011;1888;49.890;10.884;2022-10-16T14:53:42;102.80;;;94.87;;
3745;SDS011;1888;49.890;10.884;2022-10-16T14:56:14;94.57;;;87.00;;
3745;SDS011;1888;49.890;10.884;2022-10-16T14:58:43;85.60;;;78.47;;
3745;SDS011;1888;49.890;10.884;2022-10-16T15:01:10;126.47;;;117.40;;
3745;SDS011;1888;49.890;10.884;2022-10-16T15:03:37;101.00;;;93.17;;
3745;SDS011;1888;49.890;10.884;2022-10-16T15:06:08;126.63;;;117.57;;
3745;SDS011;1888;49.890;10.884;2022-10-16T15:08:38;122.30;;;113.40;;
3745;SDS011;1888;49.890;10.884;2022-10-16T15:11:05;97.07;;;89.47;;
3745;SDS011;1888;49.890;10.884;2022-10-16T15:13:34;103.10;;;95.33;;
3745;SDS011;1888;49.890;10.884;2022-10-16T15:16:01;87.20;;;80.13;;
3745;SDS011;1888;49.890;10.884;2022-10-16T15:18:28;86.07;;;78.93;;
3745;SDS011;1888;49.890;10.884;2022-10-16T15:20:56;76.83;;;70.17;;
3745;SDS011;1888;49.890;10.884;2022-10-16T15:23:23;83.37;;;76.37;;
3745;SDS011;1888;49.890;10.884;2022-10-16T15:25:52;84.47;;;77.50;;
3745;SDS011;1888;49.890;10.884;2022-10-16T15:28:20;83.40;;;76.43;;
3745;SDS011;1888;49.890;10.884;2022-10-16T15:30:49;80.17;;;73.33;;
3745;SDS011;1888;49.890;10.884;2022-10-16T15:33:17;67.03;;;60.70;;
3745;SDS011;1888;49.890;10.884;2022-10-16T15:35:46;64.80;;;58.60;;
3745;SDS011;1888;49.890;10.884;2022-10-16T15:38:14;68.47;;;62.10;;
3745;SDS011;1888;49.890;10.884;2022-10-16T15:40:41;60.07;;;54.10;;
3745;SDS011;1888;49.890;10.884;2022-10-16T15:43:10;56.97;;;51.10;;
3745;SDS011;1888;49.890;10.884;2022-10-16T15:45:42;53.40;;;47.63;;
3745;SDS011;1888;49.890;10.884;2022-10-16T15:48:12;49.33;;;40.83;;
3745;SDS011;1888;49.890;10.884;2022-10-16T15:50:39;48.27;;;39.23;;
3745;SDS011;1888;49.890;10.884;2022-10-16T15:53:07;47.43;;;37.23;;
3745;SDS011;1888;49.890;10.884;2022-10-16T15:55:35;47.10;;;35.93;;
3745;SDS011;1888;49.890;10.884;2022-10-16T15:58:18;45.00;;;30.67;;
3745;SDS011;1888;49.890;10.884;2022-10-16T16:00:53;44.07;;;28.63;;
3745;SDS011;1888;49.890;10.884;2022-10-16T16:03:20;43.30;;;26.43;;
3745;SDS011;1888;49.890;10.884;2022-10-16T16:05:47;42.87;;;24.63;;
3745;SDS011;1888;49.890;10.884;2022-10-16T16:08:14;42.30;;;23.13;;
3745;SDS011;1888;49.890;10.884;2022-10-16T16:10:42;42.87;;;24.33;;
3745;SDS011;1888;49.890;10.884;2022-10-16T16:13:09;42.07;;;22.23;;
3745;SDS011;1888;49.890;10.884;2022-10-16T16:15:39;41.90;;;21.70;;
3745;SDS011;1888;49.890;10.884;2022-10-16T16:18:07;41.67;;;20.53;;
3745;SDS011;1888;49.890;10.884;2022-10-16T16:20:35;42.60;;;21.47;;
3745;SDS011;1888;49.890;10.884;2022-10-16T16:23:02;42.60;;;21.10;;
3745;SDS011;1888;49.890;10.884;2022-10-16T16:25:29;42.00;;;20.50;;
3745;SDS011;1888;49.890;10.884;2022-10-16T16:27:56;42.30;;;18.97;;
3745;SDS011;1888;49.890;10.884;2022-10-16T16:30:23;41.20;;;18.30;;
3745;SDS011;1888;49.890;10.884;2022-10-16T16:32:52;41.73;;;19.17;;
3745;SDS011;1888;49.890;10.884;2022-10-16T16:35:19;40.83;;;16.80;;
3745;SDS011;1888;49.890;10.884;2022-10-16T16:37:46;42.10;;;18.63;;
3745;SDS011;1888;49.890;10.884;2022-10-16T16:40:14;42.40;;;18.77;;
3745;SDS011;1888;49.890;10.884;2022-10-16T16:42:41;42.47;;;18.90;;
3745;SDS011;1888;49.890;10.884;2022-10-16T16:45:08;41.37;;;17.23;;
3745;SDS011;1888;49.890;10.884;2022-10-16T16:47:36;42.07;;;17.93;;
3745;SDS011;1888;49.890;10.884;2022-10-16T16:50:06;43.37;;;21.27;;
3745;SDS011;1888;49.890;10.884;2022-10-16T16:52:33;42.13;;;18.10;;
3745;SDS011;1888;49.890;10.884;2022-10-16T16:55:00;43.07;;;21.00;;
3745;SDS011;1888;49.890;10.884;2022-10-16T16:57:28;43.03;;;20.73;;
3745;SDS011;1888;49.890;10.884;2022-10-16T16:59:55;42.40;;;19.37;;
3745;SDS011;1888;49.890;10.884;2022-10-16T17:02:22;42.97;;;20.57;;
3745;SDS011;1888;49.890;10.884;2022-10-16T17:04:50;42.20;;;18.73;;
3745;SDS011;1888;49.890;10.884;2022-10-16T17:07:19;42.57;;;19.23;;
3745;SDS011;1888;49.890;10.884;2022-10-16T17:09:46;42.00;;;17.97;;
3745;SDS011;1888;49.890;10.884;2022-10-16T17:12:13;42.00;;;17.73;;
3745;SDS011;1888;49.890;10.884;2022-10-16T17:14:41;42.37;;;17.33;;
3745;SDS011;1888;49.890;10.884;2022-10-16T17:17:09;41.77;;;17.17;;
3745;SDS011;1888;49.890;10.884;2022-10-16T17:19:36;41.60;;;16.60;;
3745;SDS011;1888;49.890;10.884;2022-10-16T17:22:03;41.87;;;15.87;;
3745;SDS011;1888;49.890;10.884;2022-10-16T17:24:32;41.47;;;16.03;;
3745;SDS011;1888;49.890;10.884;2022-10-16T17:26:59;41.00;;;14.87;;
3745;SDS011;1888;49.890;10.884;2022-10-16T17:29:26;41.60;;;15.13;;
3745;SDS011;1888;49.890;10.884;2022-10-16T17:31:56;41.17;;;14.10;;
3745;SDS011;1888;49.890;10.884;2022-10-16T17:34:23;41.17;;;14.30;;
3745;SDS011;1888;49.890;10.884;2022-10-16T17:36:50;41.10;;;13.47;;
3745;SDS011;1888;49.890;10.884;2022-10-16T17:39:19;41.00;;;13.47;;
3745;SDS011;1888;49.890;10.884;2022-10-16T17:41:48;41.07;;;13.33;;
3745;SDS011;1888;49.890;10.884;2022-10-16T17:44:15;41.30;;;13.67;;
3745;SDS011;1888;49.890;10.884;2022-10-16T17:46:47;40.60;;;12.43;;
3745;SDS011;1888;49.890;10.884;2022-10-16T17:49:16;40.40;;;11.67;;
3745;SDS011;1888;49.890;10.884;2022-10-16T17:51:44;40.60;;;12.47;;
3745;SDS011;1888;49.890;10.884;2022-10-16T17:54:11;40.90;;;12.83;;
3745;SDS011;1888;49.890;10.884;2022-10-16T17:56:39;40.90;;;12.73;;
3745;SDS011;1888;49.890;10.884;2022-10-16T17:59:08;40.73;;;11.93;;
3745;SDS011;1888;49.890;10.884;2022-10-16T18:01:36;40.77;;;11.90;;
3745;SDS011;1888;49.890;10.884;2022-10-16T18:04:05;40.43;;;11.40;;
3745;SDS011;1888;49.890;10.884;2022-10-16T18:06:33;40.67;;;11.67;;
3745;SDS011;1888;49.890;10.884;2022-10-16T18:09:01;40.50;;;10.90;;
3745;SDS011;1888;49.890;10.884;2022-10-16T18:11:28;40.20;;;10.40;;
3745;SDS011;1888;49.890;10.884;2022-10-16T18:13:58;40.17;;;10.30;;
3745;SDS011;1888;49.890;10.884;2022-10-16T18:16:27;40.27;;;10.53;;
3745;SDS011;1888;49.890;10.884;2022-10-16T18:18:55;40.60;;;10.67;;
3745;SDS011;1888;49.890;10.884;2022-10-16T18:21:23;40.30;;;10.40;;
3745;SDS011;1888;49.890;10.884;2022-10-16T18:23:51;39.70;;;9.43;;
3745;SDS011;1888;49.890;10.884;2022-10-16T18:26:19;39.80;;;9.60;;
3745;SDS011;1888;49.890;10.884;2022-10-16T18:28:46;39.77;;;9.77;;
3745;SDS011;1888;49.890;10.884;2022-10-16T18:31:15;40.13;;;10.17;;
3745;SDS011;1888;49.890;10.884;2022-10-16T18:33:45;40.00;;;10.07;;
3745;SDS011;1888;49.890;10.884;2022-10-16T18:36:15;40.00;;;10.07;;
3745;SDS011;1888;49.890;10.884;2022-10-16T18:38:42;39.70;;;9.47;;
3745;SDS011;1888;49.890;10.884;2022-10-16T18:41:09;39.83;;;9.67;;
3745;SDS011;1888;49.890;10.884;2022-10-16T18:43:37;39.93;;;9.53;;
3745;SDS011;1888;49.890;10.884;2022-10-16T18:46:05;39.67;;;9.03;;
3745;SDS011;1888;49.890;10.884;2022-10-16T18:48:33;39.73;;;8.93;;
3745;SDS011;1888;49.890;10.884;2022-10-16T18:51:10;39.70;;;9.27;;
3745;SDS011;1888;49.890;10.884;2022-10-16T18:53:40;40.03;;;9.73;;
3745;SDS011;1888;49.890;10.884;2022-10-16T18:56:07;40.10;;;9.93;;
3745;SDS011;1888;49.890;10.884;2022-10-16T18:58:35;39.77;;;8.90;;
3745;SDS011;1888;49.890;10.884;2022-10-16T19:01:03;39.70;;;9.00;;
3745;SDS011;1888;49.890;10.884;2022-10-16T19:03:31;39.90;;;9.13;;
3745;SDS011;1888;49.890;10.884;2022-10-16T19:05:59;39.70;;;8.80;;
3745;SDS011;1888;49.890;10.884;2022-10-16T19:08:28;39.80;;;8.70;;
3745;SDS011;1888;49.890;10.884;2022-10-16T19:11:00;39.80;;;9.10;;
3745;SDS011;1888;49.890;10.884;2022-10-16T19:13:28;40.07;;;9.53;;
3745;SDS011;1888;49.890;10.884;2022-10-16T19:15:56;39.77;;;9.00;;
3745;SDS011;1888;49.890;10.884;2022-10-16T19:18:23;39.80;;;9.00;;
3745;SDS011;1888;49.890;10.884;2022-10-16T19:20:51;39.60;;;8.50;;
3745;SDS011;1888;49.890;10.884;2022-10-16T19:23:18;39.83;;;8.97;;
3745;SDS011;1888;49.890;10.884;2022-10-16T19:25:47;39.93;;;9.20;;
3745;SDS011;1888;49.890;10.884;2022-10-16T19:28:14;39.90;;;9.23;;
3745;SDS011;1888;49.890;10.884;2022-10-16T19:30:41;39.80;;;8.90;;
3745;SDS011;1888;49.890;10.884;2022-10-16T19:33:10;39.93;;;9.17;;
3745;SDS011;1888;49.890;10.884;2022-10-16T19:35:37;39.80;;;8.60;;
3745;SDS011;1888;49.890;10.884;2022-10-16T19:38:04;39.77;;;9.43;;
3745;SDS011;1888;49.890;10.884;2022-10-16T19:40:32;39.70;;;9.13;;
3745;SDS011;1888;49.890;10.884;2022-10-16T19:43:00;39.70;;;9.03;;
3745;SDS011;1888;49.890;10.884;2022-10-16T19:45:27;39.90;;;9.27;;
3745;SDS011;1888;49.890;10.884;2022-10-16T19:47:54;39.90;;;9.20;;
3745;SDS011;1888;49.890;10.884;2022-10-16T19:50:21;39.67;;;8.67;;
3745;SDS011;1888;49.890;10.884;2022-10-16T19:52:48;39.70;;;8.70;;
3745;SDS011;1888;49.890;10.884;2022-10-16T19:55:16;39.67;;;8.70;;
3745;SDS011;1888;49.890;10.884;2022-10-16T19:57:43;39.83;;;8.93;;
3745;SDS011;1888;49.890;10.884;2022-10-16T20:00:12;39.97;;;9.13;;
3745;SDS011;1888;49.890;10.884;2022-10-16T20:02:39;39.60;;;8.43;;
3745;SDS011;1888;49.890;10.884;2022-10-16T20:05:07;39.77;;;8.90;;
3745;SDS011;1888;49.890;10.884;2022-10-16T20:07:34;39.87;;;8.83;;
3745;SDS011;1888;49.890;10.884;2022-10-16T20:10:01;39.60;;;8.30;;
3745;SDS011;1888;49.890;10.884;2022-10-16T20:12:29;39.87;;;8.87;;
3745;SDS011;1888;49.890;10.884;2022-10-16T20:14:56;40.07;;;8.90;;
3745;SDS011;1888;49.890;10.884;2022-10-16T20:17:24;39.70;;;8.37;;
3745;SDS011;1888;49.890;10.884;2022-10-16T20:19:51;39.53;;;8.13;;
3745;SDS011;1888;49.890;10.884;2022-10-16T20:22:19;39.87;;;8.60;;
3745;SDS011;1888;49.890;10.884;2022-10-16T20:24:46;40.03;;;9.37;;
3745;SDS011;1888;49.890;10.884;2022-10-16T20:27:13;39.80;;;8.90;;
3745;SDS011;1888;49.890;10.884;2022-10-16T20:29:40;39.70;;;8.47;;
3745;SDS011;1888;49.890;10.884;2022-10-16T20:32:07;40.00;;;8.93;;
3745;SDS011;1888;49.890;10.884;2022-10-16T20:34:35;39.90;;;8.87;;
3745;SDS011;1888;49.890;10.884;2022-10-16T20:37:03;39.97;;;8.93;;
3745;SDS011;1888;49.890;10.884;2022-10-16T20:39:30;39.80;;;8.63;;
3745;SDS011;1888;49.890;10.884;2022-10-16T20:41:57;40.03;;;8.87;;
3745;SDS011;1888;49.890;10.884;2022-10-16T20:44:24;40.10;;;9.03;;
3745;SDS011;1888;49.890;10.884;2022-10-16T20:46:52;40.17;;;9.37;;
3745;SDS011;1888;49.890;10.884;2022-10-16T20:49:20;39.80;;;8.90;;
3745;SDS011;1888;49.890;10.884;2022-10-16T20:51:48;40.20;;;9.17;;
3745;SDS011;1888;49.890;10.884;2022-10-16T20:54:15;40.13;;;9.17;;
3745;SDS011;1888;49.890;10.884;2022-10-16T20:56:43;39.80;;;8.37;;
3745;SDS011;1888;49.890;10.884;2022-10-16T20:59:10;40.00;;;8.60;;
3745;SDS011;1888;49.890;10.884;2022-10-16T21:01:37;40.20;;;9.43;;
3745;SDS011;1888;49.890;10.884;2022-10-16T21:04:06;40.13;;;9.33;;
3745;SDS011;1888;49.890;10.884;2022-10-16T21:06:33;40.10;;;9.20;;
3745;SDS011;1888;49.890;10.884;2022-10-16T21:09:02;40.37;;;9.67;;
3745;SDS011;1888;49.890;10.884;2022-10-16T21:11:31;40.00;;;9.33;;
3745;SDS011;1888;49.890;10.884;2022-10-16T21:13:59;40.17;;;9.40;;
3745;SDS011;1888;49.890;10.884;2022-10-16T21:16:27;40.27;;;9.73;;
3745;SDS011;1888;49.890;10.884;2022-10-16T21:18:54;40.47;;;9.77;;
3745;SDS011;1888;49.890;10.884;2022-10-16T21:21:22;40.20;;;9.47;;
3745;SDS011;1888;49.890;10.884;2022-10-16T21:23:50;40.17;;;9.67;;
3745;SDS011;1888;49.890;10.884;2022-10-16T21:26:19;40.50;;;10.03;;
3745;SDS011;1888;49.890;10.884;2022-10-16T21:28:50;40.30;;;9.80;;
3745;SDS011;1888;49.890;10.884;2022-10-16T21:31:18;40.40;;;10.10;;
3745;SDS011;1888;49.890;10.884;2022-10-16T21:33:45;40.57;;;10.30;;
3745;SDS011;1888;49.890;10.884;2022-10-16T21:36:13;40.17;;;9.43;;
3745;SDS011;1888;49.890;10.884;2022-10-16T21:38:41;40.40;;;10.30;;
3745;SDS011;1888;49.890;10.884;2022-10-16T21:41:12;40.10;;;9.43;;
3745;SDS011;1888;49.890;10.884;2022-10-16T21:43:41;40.33;;;10.10;;
3745;SDS011;1888;49.890;10.884;2022-10-16T21:46:08;40.30;;;9.97;;
3745;SDS011;1888;49.890;10.884;2022-10-16T21:48:35;40.30;;;9.77;;
3745;SDS011;1888;49.890;10.884;2022-10-16T21:51:03;39.97;;;9.73;;